createdAt,value
2022-12-13T00:00:09.192Z,101196.38
2022-12-13T00:05:15.106Z,101202.13
2022-12-13T00:10:18.280Z,101202.88
2022-12-13T00:15:21.880Z,101202.19
2022-12-13T00:20:27.171Z,101198.44
2022-12-13T00:25:30.813Z,101193.56
2022-12-13T00:30:34.492Z,101194.41
2022-12-13T00:35:43.181Z,101201.59
2022-12-13T00:40:46.819Z,101215.78
2022-12-13T00:45:53.637Z,101204.06
2022-12-13T00:50:58.906Z,101218.38
2022-12-13T00:56:02.601Z,101217.31
2022-12-13T01:01:08.471Z,101225.69
2022-12-13T01:06:18.536Z,101232.06
2022-12-13T01:11:22.474Z,101227.91
2022-12-13T01:16:26.163Z,101226.16
2022-12-13T01:21:32.520Z,101226.34
2022-12-13T01:26:35.440Z,101232.59
2022-12-13T01:31:39.032Z,101231.13
2022-12-13T01:36:45.796Z,101232.00
2022-12-13T01:41:51.177Z,101233.81
2022-12-13T01:46:54.906Z,101252.25
2022-12-13T01:52:06.463Z,101251.53
2022-12-13T01:57:11.212Z,101242.91
2022-12-13T02:02:15.851Z,101243.78
2022-12-13T02:07:24.964Z,101238.66
2022-12-13T02:12:30.723Z,101241.19
2022-12-13T02:17:45.652Z,101253.41
2022-12-13T02:23:14.089Z,101249.97
2022-12-13T02:28:40.849Z,101265.59
2022-12-13T02:33:53.243Z,101261.28
2022-12-13T02:39:02.212Z,101275.09
2022-12-13T02:44:22.489Z,101279.41
2022-12-13T02:49:33.392Z,101282.84
2022-12-13T02:54:38.331Z,101291.53
2022-12-13T02:59:46.779Z,101306.25
2022-12-13T03:05:05.178Z,101297.56
2022-12-13T03:10:16.119Z,101305.41
2022-12-13T03:15:26.834Z,101304.53
2022-12-13T03:20:32.248Z,101307.16
2022-12-13T03:25:35.997Z,101321.88
2022-12-13T03:30:39.997Z,101315.81
2022-12-13T03:35:46.049Z,101325.34
2022-12-13T03:40:50.511Z,101323.59
2022-12-13T03:45:54.673Z,101314.06
2022-12-13T03:51:00.710Z,101313.22
2022-12-13T03:56:06.409Z,101331.38
2022-12-13T04:01:12.961Z,101323.59
2022-12-13T04:06:21.749Z,101325.28
2022-12-13T04:11:27.023Z,101317.53
2022-12-13T04:16:30.665Z,101321.00
2022-12-13T04:21:35.974Z,101320.16
2022-12-13T04:26:39.588Z,101318.41
2022-12-13T04:31:44.026Z,101314.94
2022-12-13T04:36:49.303Z,101326.19
2022-12-13T04:41:53.561Z,101332.25
2022-12-13T04:47:01.121Z,101344.34
2022-12-13T04:52:07.608Z,101340.88
2022-12-13T04:57:12.543Z,101350.38
2022-12-13T05:02:23.956Z,101362.50
2022-12-13T05:07:29.780Z,101374.59
2022-12-13T05:12:33.464Z,101361.59
2022-12-13T05:17:37.050Z,101361.59
2022-12-13T05:22:42.329Z,101362.47
2022-12-13T05:27:45.929Z,101377.13
2022-12-13T05:32:49.531Z,101381.41
2022-12-13T05:37:55.478Z,101379.66
2022-12-13T05:43:01.497Z,101371.84
2022-12-13T05:48:05.740Z,101382.22
2022-12-13T05:53:12.657Z,101379.59
2022-12-13T05:58:16.404Z,101384.78
2022-12-13T06:03:27.133Z,101382.09
2022-12-13T06:08:33.145Z,101393.38
2022-12-13T06:13:42.895Z,101398.50
2022-12-13T06:18:47.077Z,101415.72
2022-12-13T06:23:56.568Z,101406.22
2022-12-13T06:29:00.218Z,101407.91
2022-12-13T06:34:14.465Z,101404.31
2022-12-13T06:39:20.705Z,101407.81
2022-12-13T06:44:24.339Z,101414.72
2022-12-13T06:49:32.462Z,101427.63
2022-12-13T06:54:37.930Z,101408.50
2022-12-13T06:59:41.940Z,101411.06
2022-12-13T07:04:45.783Z,101420.56
2022-12-13T07:09:51.027Z,101426.59
2022-12-13T07:14:55.394Z,101431.69
2022-12-13T07:20:01.254Z,101429.88
2022-12-13T07:25:07.417Z,101430.66
2022-12-13T07:30:31.896Z,101420.25
2022-12-13T07:35:37.021Z,101434.13
2022-12-13T07:40:43.063Z,101434.03
2022-12-13T07:45:46.693Z,101428.84
2022-12-13T07:50:54.744Z,101438.38
2022-12-13T07:56:02.643Z,101429.72
2022-12-13T08:01:07.657Z,101427.03
2022-12-13T08:06:12.689Z,101420.09
2022-12-13T08:11:18.204Z,101418.34
2022-12-13T08:16:26.126Z,101413.91
2022-12-13T08:27:02.925Z,101418.91
2022-12-13T08:32:08.229Z,101422.41
2022-12-13T08:37:11.878Z,101428.38
2022-12-13T08:42:20.336Z,101442.16
2022-12-13T08:47:26.647Z,101428.31
2022-12-13T08:52:30.636Z,101430.84
2022-12-13T08:57:36.923Z,101438.56
2022-12-13T09:02:40.581Z,101436.69
2022-12-13T09:07:44.252Z,101449.66
2022-12-13T09:12:49.558Z,101441.91
2022-12-13T09:17:53.341Z,101440.09
2022-12-13T09:23:01.217Z,101452.13
2022-12-13T09:28:07.513Z,101452.09
2022-12-13T09:33:29.061Z,101457.22
2022-12-13T09:38:35.832Z,101459.75
2022-12-13T09:43:44.057Z,101458.00
2022-12-13T09:48:48.657Z,101454.47
2022-12-13T09:53:55.105Z,101465.78
2022-12-13T09:59:00.411Z,101469.97
2022-12-13T10:04:04.052Z,101469.13
2022-12-13T10:09:10.957Z,101478.72
2022-12-13T10:14:23.596Z,101484.59
2022-12-13T10:19:31.614Z,101496.53
2022-12-13T10:24:51.693Z,101506.88
2022-12-13T10:30:03.789Z,101500.63
2022-12-13T10:35:22.160Z,101499.75
2022-12-13T10:40:32.643Z,101510.06
2022-12-13T10:45:40.309Z,101509.25
2022-12-13T10:50:44.026Z,101508.31
2022-12-13T10:55:55.547Z,101499.72
2022-12-13T11:01:10.388Z,101501.44
2022-12-13T11:06:15.911Z,101502.06
2022-12-13T11:11:27.316Z,101500.22
2022-12-13T11:16:35.833Z,101490.69
2022-12-13T11:21:40.595Z,101495.97
2022-12-13T11:26:53.948Z,101495.91
2022-12-13T11:32:08.694Z,101501.72
2022-12-13T11:37:23.698Z,101486.22
2022-12-13T11:42:31.472Z,101492.13
2022-12-13T11:47:40.232Z,101477.34
2022-12-13T11:52:50.263Z,101486.81
2022-12-13T11:57:59.926Z,101484.09
2022-12-13T12:03:19.094Z,101475.47
2022-12-13T12:08:31.994Z,101488.50
2022-12-13T12:13:51.582Z,101487.50
2022-12-13T12:19:01.170Z,101489.22
2022-12-13T12:24:20.958Z,101489.25
2022-12-13T12:29:53.015Z,101493.47
2022-12-13T12:35:11.872Z,101496.91
2022-12-13T12:41:15.140Z,101509.03
2022-12-13T12:46:23.789Z,101508.09
2022-12-13T12:51:37.578Z,101516.53
2022-12-13T12:56:52.796Z,101523.97
2022-12-13T13:02:05.179Z,101541.31
2022-12-13T13:07:23.171Z,101541.56
2022-12-13T13:12:30.301Z,101547.69
2022-12-13T13:17:47.721Z,101544.94
2022-12-13T13:23:25.228Z,101548.75
2022-12-13T13:28:22.174Z,101540.13
2022-12-13T13:33:45.296Z,101547.91
2022-12-13T13:38:54.885Z,101545.16
2022-12-13T13:44:02.205Z,101550.34
2022-12-13T13:49:12.287Z,101551.25
2022-12-13T13:54:46.934Z,101545.84
2022-12-13T14:00:14.011Z,101565.56
2022-12-13T14:05:28.499Z,101563.06
2022-12-13T14:10:50.775Z,101569.91
2022-12-13T14:16:26.074Z,101570.78
2022-12-13T14:21:56.073Z,101576.66
2022-12-13T14:27:13.443Z,101597.19
2022-12-13T14:32:26.381Z,101601.34
2022-12-13T14:37:32.550Z,101618.53
2022-12-13T14:42:38.016Z,101628.03
2022-12-13T14:47:42.340Z,101628.84
2022-12-13T14:52:47.489Z,101636.72
2022-12-13T14:57:56.309Z,101635.72
2022-12-13T15:03:02.163Z,101635.53
2022-12-13T15:08:11.460Z,101641.53
2022-12-13T15:13:29.030Z,101637.13
2022-12-13T15:18:33.388Z,101651.69
2022-12-13T15:23:49.109Z,101650.03
2022-12-13T15:28:56.864Z,101653.16
2022-12-13T15:34:28.569Z,101654.00
2022-12-13T15:39:38.752Z,101660.19
2022-12-13T15:44:48.246Z,101669.94
2022-12-13T15:49:54.109Z,101655.78
2022-12-13T15:54:59.440Z,101657.59
2022-12-13T16:00:30.652Z,101659.75
2022-12-13T16:05:37.507Z,101671.13
2022-12-13T16:10:46.207Z,101673.03
2022-12-13T16:15:52.794Z,101682.47
2022-12-13T16:21:04.640Z,101691.75
2022-12-13T16:26:11.482Z,101698.41
2022-12-13T16:31:18.751Z,101709.22
2022-12-13T16:36:22.357Z,101718.00
2022-12-13T16:41:26.153Z,101725.53
2022-12-13T16:47:14.155Z,101736.84
2022-12-13T16:51:55.481Z,101744.81
2022-12-13T16:56:59.089Z,101745.19
2022-12-13T17:02:04.416Z,101753.28
2022-12-13T17:07:09.410Z,101763.09
2022-12-13T17:12:13.055Z,101769.19
2022-12-13T17:17:19.315Z,101780.50
2022-12-13T17:22:23.031Z,101789.50
2022-12-13T17:27:26.749Z,101795.66
2022-12-13T17:32:32.057Z,101803.69
2022-12-13T17:37:35.842Z,101817.63
2022-12-13T17:42:39.474Z,101821.97
2022-12-13T17:47:45.876Z,101831.56
2022-12-13T17:52:48.709Z,101825.50
2022-12-13T17:57:52.316Z,101832.47
2022-12-13T18:02:59.292Z,101821.22
2022-12-13T18:08:02.995Z,101829.94
2022-12-13T18:13:06.614Z,101835.16
2022-12-13T18:18:12.842Z,101835.16
2022-12-13T18:23:16.697Z,101825.53
2022-12-13T18:28:20.279Z,101821.16
2022-12-13T18:33:26.130Z,101822.03
2022-12-13T18:38:36.202Z,101826.34
2022-12-13T18:43:40.655Z,101819.31
2022-12-13T18:48:46.778Z,101809.75
2022-12-13T18:53:51.243Z,101804.44
2022-12-13T18:58:55.328Z,101799.06
2022-12-13T19:04:00.622Z,101801.63
2022-12-13T19:09:04.293Z,101799.00
2022-12-13T19:14:07.874Z,101787.63
2022-12-13T19:19:13.115Z,101782.41
2022-12-13T19:24:16.712Z,101781.53
2022-12-13T19:29:20.385Z,101778.84
2022-12-13T19:34:25.671Z,101782.59
2022-12-13T19:39:29.257Z,101780.38
2022-12-13T19:44:32.855Z,101777.66
2022-12-13T19:49:38.093Z,101774.47
2022-12-13T19:54:41.864Z,101764.28
2022-12-13T19:59:45.487Z,101764.38
2022-12-13T20:04:50.814Z,101758.19
2022-12-13T20:09:54.454Z,101739.09
2022-12-13T20:14:59.151Z,101741.41
2022-12-13T20:20:05.045Z,101743.97
2022-12-13T20:25:09.594Z,101732.72
2022-12-13T20:30:13.933Z,101735.25
2022-12-13T20:35:19.629Z,101730.66
2022-12-13T20:40:26.288Z,101735.69
2022-12-13T20:45:30.166Z,101739.78
2022-12-13T20:50:35.466Z,101731.06
2022-12-13T20:55:39.087Z,101729.00
2022-12-13T21:00:42.780Z,101720.53
2022-12-13T21:05:48.260Z,101721.91
2022-12-13T21:10:51.855Z,101721.84
2022-12-13T21:15:55.656Z,101718.41
2022-12-13T21:21:00.927Z,101716.50
2022-12-13T21:26:05.428Z,101720.66
2022-12-13T21:31:10.791Z,101708.34
2022-12-13T21:36:18.905Z,101710.84
2022-12-13T21:41:22.808Z,101696.88
2022-12-13T21:46:41.405Z,101696.28
2022-12-13T21:51:53.241Z,101698.88
2022-12-13T21:56:56.813Z,101700.00
2022-12-13T22:02:02.322Z,101693.06
2022-12-13T22:07:08.609Z,101687.44
2022-12-13T22:12:19.881Z,101686.81
2022-12-13T22:17:31.052Z,101680.72
2022-12-13T22:22:39.385Z,101689.53
2022-12-13T22:27:43.032Z,101680.56
2022-12-13T22:32:46.616Z,101684.25
2022-12-13T22:37:51.958Z,101681.69
2022-12-13T22:42:55.541Z,101670.53
2022-12-13T22:47:59.162Z,101673.19
2022-12-13T22:53:04.479Z,101663.66
2022-12-13T22:58:08.073Z,101668.28
2022-12-13T23:03:11.690Z,101675.25
2022-12-13T23:08:16.962Z,101670.78
2022-12-13T23:13:20.599Z,101668.31
2022-12-13T23:18:24.599Z,101651.75
2022-12-13T23:23:30.729Z,101653.72
2022-12-13T23:28:34.374Z,101652.09
2022-12-13T23:33:38.787Z,101664.59
2022-12-13T23:38:44.512Z,101682.19
2022-12-13T23:43:48.693Z,101670.94
2022-12-13T23:48:52.543Z,101684.09
2022-12-13T23:53:58.669Z,101678.09
2022-12-13T23:59:02.267Z,101680.88
